Terminal Aerodrome Forecast
Issued by NWS Charleston, WV

Current Version | Previous Version | Graphics & Text | Print | Product List | Glossary On
Versions: 1 2 3 4 5 6 7 8 9 10 11 12 13 14 15 16 17 18 19 20 21 22 23
466
FTUS41 KRLX 080920 AAA
TAFEKN
TAF AMD
KEKN 080920Z 0809/0906 00000KT P6SM BKN080
     FM081300 27006KT P6SM BKN080
     FM081700 28009G16KT P6SM SCT080
     FM082000 28009G18KT P6SM BKN050
     FM090000 28010G22KT P6SM BKN035=

USA.gov is the U.S. government's official web portal to all federal, state and local government web resources and services.